Time;durP1;ratioP1;P1;durP2;ratioP2;P2;SDS_P1;SDS_P2;PMS_P1;PMS_P2;Temp;Humidity;BMP_temperature;BMP_pressure;BME280_temperature;BME280_humidity;BME280_pressure;Samples;Min_cycle;Max_cycle;Signal;HPM_P1;HPM_P2
2022/08/27 00:10:04;;;;;;;17.10;9.70;;;;;;;18.01;68.10;98194.61;431125;1276;109016;-41
2022/08/27 00:20:13;;;;;;;19.20;10.30;;;;;;;18.09;68.45;98183.20;430881;1275;97521;-41
2022/08/27 00:30:22;;;;;;;16.00;10.50;;;;;;;18.17;68.42;98186.52;430933;1276;109038;-41
2022/08/27 00:40:32;;;;;;;20.30;10.50;;;;;;;18.15;68.66;98188.99;430707;1277;108815;-40
2022/08/27 00:50:43;;;;;;;15.90;10.10;;;;;;;18.20;68.32;98188.77;430878;1276;96711;-41
2022/08/27 01:00:52;;;;;;;13.00;9.40;;;;;;;18.15;68.18;98185.90;430439;1276;109368;-41
2022/08/27 01:11:01;;;;;;;17.30;10.80;;;;;;;18.01;68.28;98180.48;431732;1261;97906;-39
2022/08/27 01:21:13;;;;;;;14.80;11.00;;;;;;;17.70;68.47;98186.80;431540;1274;111211;-39
2022/08/27 01:31:20;;;;;;;11.10;9.90;;;;;;;17.37;68.85;98187.72;431679;1274;108915;-39
2022/08/27 01:41:29;;;;;;;14.60;11.00;;;;;;;17.29;69.47;98196.46;432095;1273;96671;-41
2022/08/27 01:51:35;;;;;;;17.30;10.20;;;;;;;17.00;69.49;98195.23;431968;1274;111095;-41
2022/08/27 02:01:43;;;;;;;15.70;10.00;;;;;;;16.94;70.20;98182.80;431764;1274;108703;-41
2022/08/27 02:11:51;;;;;;;17.00;11.30;;;;;;;16.70;70.31;98169.61;431956;1274;96687;-41
2022/08/27 02:32:04;;;;;;;23.80;11.90;;;;;;;16.76;71.09;98166.26;431999;1274;98023;-39
2022/08/27 02:52:19;;;;;;;21.10;11.90;;;;;;;16.55;71.60;98161.71;431984;1274;108870;-39
2022/08/27 03:02:31;;;;;;;19.70;11.90;;;;;;;16.36;71.67;98155.19;431932;1274;97825;-40
2022/08/27 03:12:39;;;;;;;25.20;14.00;;;;;;;16.24;71.79;98150.95;431862;1274;111168;-40
2022/08/27 03:22:46;;;;;;;18.80;11.20;;;;;;;16.11;72.12;98150.30;430764;1276;108795;-41
2022/08/27 03:32:53;;;;;;;16.20;11.10;;;;;;;16.11;72.44;98147.42;430922;1274;97389;-42
2022/08/27 03:43:00;;;;;;;22.80;11.30;;;;;;;16.27;72.92;98150.93;431810;1274;108985;-41
2022/08/27 03:53:09;;;;;;;23.70;11.80;;;;;;;16.34;72.68;98149.33;431624;1274;97935;-42
2022/08/27 04:03:16;;;;;;;18.80;13.60;;;;;;;16.24;72.75;98150.04;431855;1274;111481;-41
2022/08/27 04:13:25;;;;;;;17.80;11.40;;;;;;;15.99;72.65;98153.25;431438;1274;108822;-41
2022/08/27 04:23:33;;;;;;;17.20;10.70;;;;;;;16.09;73.34;98152.64;431554;1274;96693;-41
2022/08/27 04:33:39;;;;;;;15.70;9.80;;;;;;;16.22;72.99;98163.77;431531;1274;111244;-42
2022/08/27 04:43:46;;;;;;;21.90;12.60;;;;;;;16.17;72.99;98159.53;431152;1274;108695;-42
2022/08/27 04:53:53;;;;;;;20.30;11.90;;;;;;;16.48;73.46;98153.86;431579;1274;98000;-41
2022/08/27 05:04:01;;;;;;;23.20;13.40;;;;;;;17.24;73.41;98159.63;431725;1274;109018;-41
2022/08/27 05:14:11;;;;;;;19.20;12.90;;;;;;;18.12;72.72;98164.45;431925;1274;97996;-41
2022/08/27 05:24:19;;;;;;;16.20;12.00;;;;;;;19.23;72.18;98166.63;431793;1274;98667;-40
2022/08/27 05:34:25;;;;;;;;;;;;;;;20.37;71.72;98169.41;431633;1274;112053;-41
2022/08/27 05:44:33;;;;;;;20.00;12.00;;;;;;;21.63;71.27;98175.10;431276;1275;108881;-41
2022/08/27 05:54:48;;;;;;;26.30;12.00;;;;;;;22.69;70.09;98162.84;431752;1275;97560;-42
2022/08/27 06:04:54;;;;;;;;;;;;;;;23.90;68.98;98156.90;431000;1274;97913;-42
2022/08/27 06:15:01;;;;;;;18.50;11.10;;;;;;;25.01;67.39;98173.02;430585;1274;1565777;-42
2022/08/27 06:25:08;;;;;;;23.90;12.50;;;;;;;25.95;66.40;98176.38;431968;1274;108877;-42
2022/08/27 06:35:14;;;;;;;36.60;16.00;;;;;;;26.77;64.48;98181.30;431784;1274;98819;-42
2022/08/27 06:45:22;;;;;;;34.90;19.00;;;;;;;27.44;62.61;98186.98;431711;1274;111289;-42
2022/08/27 06:55:29;;;;;;;28.10;14.40;;;;;;;27.95;60.63;98191.84;431579;1274;108952;-42
2022/08/27 07:05:43;;;;;;;29.60;14.10;;;;;;;27.94;58.36;98191.35;431293;1276;97903;-42
2022/08/27 07:15:50;;;;;;;28.90;13.10;;;;;;;27.97;57.19;98195.29;431640;1274;111257;-43
2022/08/27 07:25:58;;;;;;;20.40;10.00;;;;;;;28.21;56.64;98190.54;431166;1275;108559;-42
2022/08/27 07:46:11;;;;;;;23.30;11.30;;;;;;;28.40;53.85;98179.45;431596;1274;112234;-41
2022/08/27 07:56:18;;;;;;;20.80;11.20;;;;;;;28.12;52.25;98187.70;431623;1274;109197;-41
2022/08/27 08:06:27;;;;;;;14.30;8.90;;;;;;;28.60;52.85;98190.35;431749;1274;97553;-42
2022/08/27 08:16:34;;;;;;;14.40;7.30;;;;;;;29.19;51.68;98206.15;431622;1274;96648;-43
2022/08/27 08:26:43;;;;;;;16.50;9.40;;;;;;;29.61;51.00;98220.73;430998;1275;111124;-42
2022/08/27 08:36:50;;;;;;;20.30;9.20;;;;;;;29.94;51.14;98231.67;431534;1274;108745;-43
2022/08/27 08:46:59;;;;;;;10.10;8.40;;;;;;;30.20;51.15;98234.25;431145;1274;97949;-43
2022/08/27 08:57:15;;;;;;;11.20;9.50;;;;;;;30.52;50.98;98240.52;431413;1274;97447;-41
2022/08/27 09:07:32;;;;;;;10.10;8.60;;;;;;;30.41;50.16;98239.98;431029;1274;112000;-41
2022/08/27 09:17:40;;;;;;;14.50;7.20;;;;;;;30.44;49.26;98234.40;431430;1274;108990;-43
2022/08/27 09:27:49;;;;;;;8.70;6.90;;;;;;;30.63;48.47;98234.66;431692;1274;108969;-43
2022/08/27 09:37:58;;;;;;;11.10;8.00;;;;;;;30.82;48.41;98234.58;431456;1274;97938;-42
2022/08/27 09:58:17;;;;;;;11.30;7.30;;;;;;;30.86;45.86;98221.04;431414;1274;108846;-41
2022/08/27 10:08:23;;;;;;;9.80;7.10;;;;;;;30.57;45.80;98210.16;431315;1274;108778;-42
2022/08/27 10:28:38;;;;;;;6.60;5.70;;;;;;;31.13;42.66;98216.65;431131;1274;111665;-43
2022/08/27 10:38:50;;;;;;;10.40;6.10;;;;;;;31.29;41.91;98214.54;430841;1274;106852;-41
2022/08/27 10:49:02;;;;;;;11.90;6.60;;;;;;;31.54;40.82;98212.96;431122;1274;97964;-43
2022/08/27 10:59:07;;;;;;;9.10;6.30;;;;;;;31.65;40.49;98205.86;431567;1274;100181;-40
2022/08/27 11:09:17;;;;;;;8.80;5.50;;;;;;;31.31;38.87;98202.09;431555;1274;111103;-41
2022/08/27 11:39:49;;;;;;;8.20;5.00;;;;;;;31.09;37.51;98189.22;431336;1274;111157;-41
2022/08/27 11:49:59;;;;;;;12.40;6.90;;;;;;;31.11;37.45;98183.39;431386;1274;108912;-40
2022/08/27 12:00:29;;;;;;;10.10;5.40;;;;;;;30.94;36.79;98178.23;431031;1274;97483;-41
2022/08/27 12:10:34;;;;;;;12.40;5.30;;;;;;;30.68;36.36;98171.64;430977;1274;97909;-41
2022/08/27 12:20:42;;;;;;;8.40;6.50;;;;;;;30.84;37.30;98161.83;431008;1275;111556;-40
2022/08/27 12:30:50;;;;;;;11.20;6.30;;;;;;;30.65;36.67;98156.56;430891;1276;109876;-40
2022/08/27 12:51:16;;;;;;;16.30;7.40;;;;;;;30.32;37.51;98141.75;431444;1274;110219;-41
2022/08/27 13:01:33;;;;;;;11.80;6.70;;;;;;;30.06;37.20;98134.25;431322;1274;108850;-41
2022/08/27 13:11:46;;;;;;;11.80;8.00;;;;;;;29.89;38.32;98127.40;431038;1274;97945;-41
2022/08/27 13:21:55;;;;;;;12.20;6.80;;;;;;;29.86;38.21;98125.80;431970;1274;96675;-42
2022/08/27 13:32:03;;;;;;;12.00;7.60;;;;;;;29.72;38.48;98123.50;430944;1276;111269;-42
2022/08/27 13:42:10;;;;;;;9.10;6.90;;;;;;;29.78;38.79;98111.20;430753;1274;108984;-41
2022/08/27 13:52:19;;;;;;;14.10;7.00;;;;;;;29.77;39.04;98107.69;430736;1275;96682;-40
2022/08/27 14:02:32;;;;;;;14.70;7.40;;;;;;;29.86;39.27;98102.60;431599;1274;111099;-40
2022/08/27 14:12:42;;;;;;;12.50;7.80;;;;;;;29.69;38.38;98100.43;431180;1274;109272;-40
2022/08/27 14:22:49;;;;;;;12.60;6.90;;;;;;;29.51;38.63;98098.14;431202;1274;97539;-40
2022/08/27 14:43:02;;;;;;;8.70;7.70;;;;;;;29.54;38.99;98096.08;431410;1274;110160;-41
2022/08/27 14:53:09;;;;;;;10.30;6.90;;;;;;;29.44;38.94;98099.96;430961;1276;108927;-42
2022/08/27 15:03:18;;;;;;;15.90;7.10;;;;;;;29.47;39.19;98101.58;430508;1276;97821;-41
2022/08/27 15:13:26;;;;;;;14.30;6.70;;;;;;;29.55;39.69;98104.58;432074;1274;97959;-39
2022/08/27 15:23:33;;;;;;;12.50;7.70;;;;;;;29.42;39.94;98103.29;431297;1276;111347;-40
2022/08/27 15:33:40;;;;;;;23.30;8.20;;;;;;;29.39;40.37;98099.26;431519;1274;108865;-40
2022/08/27 15:43:48;;;;;;;17.00;7.50;;;;;;;29.47;40.94;98098.77;431517;1274;97910;-39
2022/08/27 15:53:55;;;;;;;14.30;7.80;;;;;;;29.36;41.56;98095.10;430981;1274;111126;-42
2022/08/27 16:04:05;;;;;;;13.40;8.60;;;;;;;29.10;42.31;98099.12;430700;1275;109790;-40
2022/08/27 16:14:13;;;;;;;15.70;7.60;;;;;;;28.79;42.55;98106.59;431535;1273;97900;-41
2022/08/27 16:34:24;;;;;;;8.80;7.90;;;;;;;27.99;44.40;98113.89;431708;1274;111092;-41
2022/08/27 16:44:33;;;;;;;13.40;6.90;;;;;;;27.44;45.63;98128.87;430856;1276;97907;-42
2022/08/27 16:54:41;;;;;;;9.00;6.60;;;;;;;26.99;46.79;98136.92;431195;1274;97943;-41
2022/08/27 17:04:49;;;;;;;14.70;6.50;;;;;;;26.65;47.42;98136.81;430836;1276;111018;-41
2022/08/27 17:15:08;;;;;;;9.10;6.30;;;;;;;26.30;47.88;98136.85;431377;1274;108879;-41
2022/08/27 17:25:16;;;;;;;7.70;4.00;;;;;;;25.92;47.60;98147.43;430811;1276;98291;-40
2022/08/27 17:35:20;;;;;;;3.80;3.50;;;;;;;25.61;47.83;98161.02;431718;1274;111244;-40
2022/08/27 17:45:28;;;;;;;8.70;4.70;;;;;;;25.24;48.00;98163.37;431092;1274;97942;-40
2022/08/27 17:55:36;;;;;;;8.60;4.80;;;;;;;24.84;48.62;98175.85;431494;1274;97592;-40
2022/08/27 18:05:44;;;;;;;11.20;4.30;;;;;;;24.54;49.38;98183.06;430748;1276;111059;-40
2022/08/27 18:25:58;;;;;;;11.60;6.40;;;;;;;24.05;50.25;98200.21;431734;1274;97957;-41
2022/08/27 18:36:07;;;;;;;7.70;5.50;;;;;;;23.82;50.89;98215.45;431170;1274;97977;-41
2022/08/27 18:46:16;;;;;;;10.70;6.30;;;;;;;23.60;51.73;98216.25;431302;1274;111140;-40
2022/08/27 18:56:22;;;;;;;11.00;6.40;;;;;;;23.37;52.31;98229.44;431590;1274;107797;-40
2022/08/27 19:06:29;;;;;;;14.10;6.80;;;;;;;23.13;53.05;98235.91;430705;1276;97913;-40
2022/08/27 19:16:42;;;;;;;9.40;7.10;;;;;;;22.93;53.88;98240.52;432037;1274;97903;-40
2022/08/27 19:26:52;;;;;;;11.30;7.80;;;;;;;22.79;54.60;98233.73;431851;1274;111127;-41
2022/08/27 19:37:01;;;;;;;19.00;10.40;;;;;;;22.76;55.72;98238.08;431394;1274;108928;-41
2022/08/27 19:47:10;;;;;;;19.40;11.90;;;;;;;22.76;56.37;98238.20;431970;1272;99250;-40
2022/08/27 19:57:17;;;;;;;23.90;13.50;;;;;;;22.62;56.83;98246.10;431176;1274;108072;-42
2022/08/27 20:07:23;;;;;;;17.10;10.50;;;;;;;22.56;57.19;98249.35;431640;1274;99366;-41
2022/08/27 20:17:31;;;;;;;15.40;10.40;;;;;;;22.45;57.44;98245.38;430970;1274;111511;-40
2022/08/27 20:27:39;;;;;;;15.50;9.00;;;;;;;22.34;57.96;98242.80;431043;1275;108983;-42
2022/08/27 20:37:46;;;;;;;16.80;7.90;;;;;;;22.28;58.40;98244.58;431612;1273;98830;-41
2022/08/27 20:47:56;;;;;;;16.10;9.70;;;;;;;22.23;58.96;98242.34;432030;1274;109326;-41
2022/08/27 21:08:26;;;;;;;18.50;9.40;;;;;;;22.02;59.70;98235.48;431953;1274;112668;-40
2022/08/27 21:18:34;;;;;;;14.80;9.30;;;;;;;21.91;59.84;98232.71;431796;1274;109070;-41
2022/08/27 21:28:43;;;;;;;14.30;9.30;;;;;;;21.80;60.04;98235.20;431559;1274;98420;-40
2022/08/27 21:38:50;;;;;;;22.60;13.70;;;;;;;21.71;60.32;98239.31;431729;1274;108773;-40
2022/08/27 21:48:58;;;;;;;19.90;12.60;;;;;;;21.58;60.68;98229.46;432034;1274;99238;-40
2022/08/27 22:09:12;;;;;;;11.50;8.80;;;;;;;21.36;61.17;98224.34;431747;1274;108986;-41
2022/08/27 22:29:28;;;;;;;12.40;10.70;;;;;;;21.17;62.29;98230.13;431654;1274;109043;-41
2022/08/27 22:39:37;;;;;;;14.10;10.50;;;;;;;20.95;62.89;98235.52;431837;1274;98927;-40
2022/08/27 22:49:45;;;;;;;21.50;12.10;;;;;;;20.83;63.55;98236.20;431972;1274;112434;-40
2022/08/27 22:59:52;;;;;;;13.90;12.40;;;;;;;20.82;63.89;98229.13;431784;1274;108972;-40
2022/08/27 23:09:59;;;;;;;21.00;13.50;;;;;;;20.76;64.38;98222.87;431829;1274;98856;-40
2022/08/27 23:20:09;;;;;;;24.80;14.90;;;;;;;20.66;64.95;98214.73;431737;1274;109140;-41
2022/08/27 23:30:17;;;;;;;20.70;14.50;;;;;;;20.46;65.31;98214.98;431475;1274;99250;-39
2022/08/27 23:40:23;;;;;;;;;;;;;;;20.31;65.65;98214.21;431534;1274;112483;-41
2022/08/27 23:50:31;;;;;;;14.50;12.30;;;;;;;20.07;65.96;98213.50;431760;1274;109187;-40
